Аэропорт: Курск-Восточный . Курск

ICAO: UUOK

METAR:
2019/01/21 19:00
UUOK 211900Z 30004MPS CAVOK M10/M11 Q1015 R30/450355 NOSIG RMK QFE743/0991
METAR:
Информация по данной станции не доступна